Time;durP1;ratioP1;P1;durP2;ratioP2;P2;SDS_P1;SDS_P2;PMS_P1;PMS_P2;Temp;Humidity;BMP_temperature;BMP_pressure;BME280_temperature;BME280_humidity;BME280_pressure;Samples;Min_cycle;Max_cycle;Signal;HPM_P1;HPM_P2
2021/06/20 00:01:37;;;;;;;13.00;10.03;;;;;;;21.23;75.87;100274.44;5043767;28;20286;-71
2021/06/20 00:04:31;;;;;;;12.07;10.87;;;;;;;21.18;76.17;100269.50;5038532;28;20199;-71
2021/06/20 00:07:17;;;;;;;11.10;10.00;;;;;;;21.16;76.32;100284.69;5038812;28;20669;-71
2021/06/20 00:10:01;;;;;;;12.37;11.17;;;;;;;21.13;77.09;100279.63;5038649;28;20207;-71
2021/06/20 00:12:43;;;;;;;11.83;10.50;;;;;;;21.07;77.08;100272.97;5013312;28;20610;-71
2021/06/20 00:15:21;;;;;;;11.73;10.57;;;;;;;21.06;77.02;100270.44;5012239;28;20196;-71
2021/06/20 00:18:05;;;;;;;11.67;10.53;;;;;;;21.02;77.87;100269.84;5042961;28;20597;-71
2021/06/20 00:20:48;;;;;;;13.57;12.10;;;;;;;20.97;77.19;100264.88;5030561;28;20195;-71
2021/06/20 00:23:32;;;;;;;12.47;11.10;;;;;;;20.96;78.37;100264.97;5036504;28;20787;-71
2021/06/20 00:28:59;;;;;;;12.73;10.90;;;;;;;20.92;79.12;100258.22;5012204;28;20253;-71
2021/06/20 00:31:34;;;;;;;11.83;10.63;;;;;;;20.90;79.53;100261.00;5039331;28;20751;-71
2021/06/20 00:34:09;;;;;;;13.30;10.63;;;;;;;20.87;79.84;100266.50;5030616;28;20588;-71
2021/06/20 00:36:43;;;;;;;11.47;9.90;;;;;;;20.87;80.11;100261.22;5035836;28;20703;-71
2021/06/20 00:39:25;;;;;;;12.57;10.87;;;;;;;20.79;79.33;100258.28;5040865;28;20550;-71
2021/06/20 00:42:16;;;;;;;11.90;10.83;;;;;;;20.75;79.91;100248.88;5042236;28;20206;-71
2021/06/20 00:45:11;;;;;;;12.47;11.10;;;;;;;20.73;80.50;100248.16;5038970;28;20706;-71
2021/06/20 00:47:41;;;;;;;11.80;10.00;;;;;;;20.71;81.06;100236.84;5042272;28;20777;-71
2021/06/20 00:50:22;;;;;;;13.80;10.83;;;;;;;20.71;80.86;100239.50;5046027;28;20214;-71
2021/06/20 00:52:56;;;;;;;11.57;10.37;;;;;;;20.69;81.92;100239.59;5044392;28;20203;-71
2021/06/20 00:55:37;;;;;;;11.97;10.73;;;;;;;20.64;81.24;100239.09;5041970;28;20295;-71
2021/06/20 00:58:35;;;;;;;11.77;10.67;;;;;;;20.59;81.44;100235.91;5042528;28;20223;-71
2021/06/20 01:01:14;;;;;;;12.03;10.87;;;;;;;20.54;82.59;100232.75;5038307;28;20195;-71
2021/06/20 01:03:47;;;;;;;11.30;10.20;;;;;;;20.55;83.47;100237.94;5037267;28;20195;-71
2021/06/20 01:06:36;;;;;;;12.73;11.43;;;;;;;20.55;83.14;100224.72;5039206;28;20325;-71
2021/06/20 01:09:15;;;;;;;12.43;11.13;;;;;;;20.48;82.37;100226.13;5038314;28;20501;-71
2021/06/20 01:11:51;;;;;;;13.00;10.93;;;;;;;20.43;83.03;100234.41;5041546;28;20210;-71
2021/06/20 01:14:23;;;;;;;14.83;11.87;;;;;;;20.38;83.07;100231.25;5040844;28;20191;-71
2021/06/20 01:16:55;;;;;;;13.63;10.73;;;;;;;20.35;83.22;100235.91;5042788;28;20310;-71
2021/06/20 01:19:41;;;;;;;14.00;12.07;;;;;;;20.32;83.09;100234.34;5031203;28;20202;-71
2021/06/20 01:22:19;;;;;;;13.60;12.20;;;;;;;20.26;84.70;100233.94;5039674;28;20261;-71
2021/06/20 01:25:20;;;;;;;14.73;12.80;;;;;;;20.19;85.95;100230.91;5048710;28;20432;-71
2021/06/20 01:27:52;;;;;;;15.93;12.50;;;;;;;20.12;85.63;100224.34;5043890;28;20272;-71
2021/06/20 01:30:42;;;;;;;13.53;12.13;;;;;;;20.18;86.60;100224.75;5044797;28;20822;-71
2021/06/20 01:33:26;;;;;;;12.87;11.43;;;;;;;20.18;86.12;100216.81;5039242;28;20199;-71
2021/06/20 01:36:03;;;;;;;14.50;12.13;;;;;;;20.17;85.93;100214.28;5038504;28;20207;-71
2021/06/20 01:38:36;;;;;;;14.33;12.70;;;;;;;20.08;85.50;100209.66;5045596;28;20223;-71
2021/06/20 01:41:12;;;;;;;15.83;12.00;;;;;;;20.01;85.81;100209.25;5046459;28;20199;-71
2021/06/20 01:44:05;;;;;;;14.17;12.27;;;;;;;19.99;87.00;100205.88;5048330;28;20226;-71
2021/06/20 01:46:51;;;;;;;13.37;11.73;;;;;;;19.98;86.32;100193.59;5041466;28;20231;-71
2021/06/20 01:53:17;;;;;;;12.73;11.43;;;;;;;19.84;87.43;100187.53;5037772;28;20188;-71
2021/06/20 01:55:56;;;;;;;13.50;11.83;;;;;;;19.90;87.69;100188.88;5041369;28;20203;-71
2021/06/20 01:58:43;;;;;;;13.20;11.70;;;;;;;19.92;88.48;100178.19;5040943;28;20219;-71
2021/06/20 02:01:22;;;;;;;13.33;11.93;;;;;;;19.87;88.04;100170.56;5039481;28;20214;-71
2021/06/20 02:04:05;;;;;;;13.10;11.80;;;;;;;19.84;87.79;100171.66;5041811;28;20203;-71
2021/06/20 02:06:47;;;;;;;13.73;12.33;;;;;;;19.81;87.49;100165.75;5040533;28;20296;-71
2021/06/20 02:12:25;;;;;;;13.97;12.53;;;;;;;19.77;88.51;100159.84;5042681;28;20209;-71
2021/06/20 02:15:09;;;;;;;14.33;12.93;;;;;;;19.80;88.90;100156.94;5042313;28;20684;-71
2021/06/20 02:17:55;;;;;;;;;;;;;;;;;;;;;
2021/06/20 02:20:38;;;;;;;12.97;11.67;;;;;;;19.73;87.00;100162.75;5046896;28;20206;-71
2021/06/20 02:23:11;;;;;;;15.37;12.83;;;;;;;19.72;88.37;100172.50;5041981;28;20183;-71
2021/06/20 02:25:54;;;;;;;15.90;12.50;;;;;;;19.67;88.98;100172.81;5050374;28;20207;-71
2021/06/20 02:28:24;;;;;;;13.67;12.13;;;;;;;19.68;88.00;100179.81;5042240;28;20231;-71
2021/06/20 02:31:02;;;;;;;13.80;12.23;;;;;;;19.65;88.30;100181.84;5042825;28;20214;-71
2021/06/20 02:33:32;;;;;;;13.90;12.50;;;;;;;19.73;89.58;100182.09;5041953;28;20207;-71
2021/06/20 02:36:17;;;;;;;13.70;11.93;;;;;;;19.71;88.46;100196.41;5033960;28;20382;-71
2021/06/20 02:38:54;;;;;;;15.90;12.60;;;;;;;19.70;88.61;100200.88;5043142;28;20219;-71
2021/06/20 02:41:37;;;;;;;14.57;13.00;;;;;;;19.66;89.68;100202.00;5045347;28;20211;-71
2021/06/20 02:44:11;;;;;;;13.97;12.43;;;;;;;19.67;89.95;100212.50;5040476;28;20226;-71
2021/06/20 02:49:45;;;;;;;14.37;13.03;;;;;;;19.60;89.98;100210.41;5036956;28;20843;-71
2021/06/20 02:52:25;;;;;;;13.97;12.57;;;;;;;19.68;90.71;100206.25;5040982;28;20210;-71
2021/06/20 02:55:05;;;;;;;13.47;12.13;;;;;;;19.63;89.27;100200.44;5036806;28;20597;-71
2021/06/20 02:57:42;;;;;;;14.33;12.97;;;;;;;19.62;89.39;100198.75;5040030;28;20268;-71
2021/06/20 03:00:42;;;;;;;13.87;12.20;;;;;;;19.59;89.67;100198.94;5047463;28;20206;-71
2021/06/20 03:03:38;;;;;;;13.87;12.40;;;;;;;19.59;89.53;100198.94;5043151;28;20253;-71
2021/06/20 03:06:13;;;;;;;13.40;12.13;;;;;;;19.62;90.30;100200.56;5038252;28;20290;-71
2021/06/20 03:08:52;;;;;;;14.07;12.70;;;;;;;19.60;90.29;100205.94;5039831;28;20219;-71
2021/06/20 03:11:36;;;;;;;16.70;13.20;;;;;;;19.59;91.03;100213.97;5037994;28;20871;-71
2021/06/20 03:14:13;;;;;;;13.53;12.13;;;;;;;19.60;90.35;100216.53;5037898;28;20218;-70
2021/06/20 03:16:52;;;;;;;14.73;13.23;;;;;;;19.66;91.21;100220.53;5041558;28;20623;-70
2021/06/20 03:19:30;;;;;;;14.50;13.03;;;;;;;19.67;91.11;100227.53;5037770;28;20209;-71
2021/06/20 03:22:08;;;;;;;14.10;12.67;;;;;;;19.61;91.26;100231.44;5038456;28;20567;-71
2021/06/20 03:24:40;;;;;;;15.77;14.17;;;;;;;19.61;91.90;100236.72;5039765;28;20204;-71
2021/06/20 03:27:25;;;;;;;15.33;12.67;;;;;;;19.67;91.60;100238.09;5045314;28;20589;-71
2021/06/20 03:30:29;;;;;;;15.43;13.87;;;;;;;19.71;91.06;100242.19;5038443;28;20575;-71
2021/06/20 03:32:57;;;;;;;15.27;13.67;;;;;;;19.76;91.05;100239.28;5035809;28;20200;-71
2021/06/20 03:35:23;;;;;;;14.90;13.23;;;;;;;19.78;91.27;100248.78;5039464;28;20712;-71
2021/06/20 03:37:50;;;;;;;14.70;13.17;;;;;;;19.80;90.73;100248.69;5024085;28;20803;-71
2021/06/20 03:40:17;;;;;;;14.97;12.97;;;;;;;19.86;90.58;100248.25;5040508;28;20202;-71
2021/06/20 03:42:44;;;;;;;15.33;13.87;;;;;;;19.88;90.13;100241.06;5037538;28;20207;-71
2021/06/20 03:45:11;;;;;;;15.90;13.30;;;;;;;19.99;90.40;100230.53;5039243;28;20199;-71
2021/06/20 03:47:39;;;;;;;15.60;14.00;;;;;;;19.98;89.45;100226.22;5048596;28;20615;-71
2021/06/20 03:50:09;;;;;;;14.67;13.17;;;;;;;20.06;89.72;100228.31;5040110;28;20311;-71
2021/06/20 03:52:36;;;;;;;15.40;13.80;;;;;;;20.11;89.79;100226.16;5039995;28;20273;-71
2021/06/20 03:55:03;;;;;;;15.90;13.90;;;;;;;20.21;89.94;100224.53;5041713;28;20208;-70
2021/06/20 03:57:29;;;;;;;17.87;14.70;;;;;;;20.24;89.68;100226.13;5040511;28;20231;-70
2021/06/20 03:59:56;;;;;;;17.03;14.53;;;;;;;20.29;89.86;100223.97;5040174;28;20211;-70
2021/06/20 04:02:22;;;;;;;15.27;13.67;;;;;;;20.36;89.32;100233.16;5043539;28;20222;-70
2021/06/20 04:04:48;;;;;;;17.40;14.87;;;;;;;20.46;89.33;100221.91;5039980;28;20206;-70
2021/06/20 04:07:16;;;;;;;16.27;14.53;;;;;;;20.54;88.59;100225.66;5038926;28;20230;-70
2021/06/20 04:09:45;;;;;;;15.90;14.03;;;;;;;20.65;89.05;100224.91;5040237;28;20283;-70
2021/06/20 04:12:13;;;;;;;16.47;14.87;;;;;;;20.79;88.94;100213.25;5039373;28;20211;-70
2021/06/20 04:14:40;;;;;;;19.33;17.27;;;;;;;20.98;88.51;100207.41;5031886;28;20211;-70
2021/06/20 04:17:07;;;;;;;18.40;16.37;;;;;;;21.19;88.01;100212.88;5038541;28;20290;-70
2021/06/20 04:19:34;;;;;;;19.33;17.27;;;;;;;21.37;87.45;100210.59;5034105;28;20205;-71
2021/06/20 04:22:00;;;;;;;18.70;16.77;;;;;;;21.54;87.97;100204.00;5044974;28;20537;-70
2021/06/20 04:24:28;;;;;;;18.30;16.47;;;;;;;21.68;86.04;100198.44;5042270;28;20294;-71
2021/06/20 04:26:55;;;;;;;18.67;16.67;;;;;;;21.88;84.65;100196.00;5047640;28;20218;-71
2021/06/20 04:29:22;;;;;;;17.10;15.33;;;;;;;22.05;84.33;100192.84;5031512;28;20195;-72
2021/06/20 04:31:48;;;;;;;17.90;16.10;;;;;;;22.24;83.09;100188.69;5040557;28;20320;-72
2021/06/20 04:34:14;;;;;;;17.70;15.83;;;;;;;22.40;81.87;100188.31;5038740;28;20649;-69
2021/06/20 04:36:41;;;;;;;17.33;15.57;;;;;;;22.57;80.95;100189.56;5019144;28;20219;-70
2021/06/20 04:39:08;;;;;;;17.33;15.53;;;;;;;22.76;80.43;100194.16;5034074;28;20215;-69
2021/06/20 04:41:38;;;;;;;16.93;15.17;;;;;;;22.88;80.61;100198.44;5041723;28;20243;-69
2021/06/20 04:44:05;;;;;;;16.40;14.70;;;;;;;23.02;79.57;100195.47;5035592;28;20211;-70
2021/06/20 04:46:34;;;;;;;16.97;15.30;;;;;;;23.18;78.88;100203.00;5037534;28;20211;-72
2021/06/20 04:49:06;;;;;;;16.47;14.87;;;;;;;23.32;78.06;100201.78;5037426;28;20211;-73
2021/06/20 04:51:33;;;;;;;16.20;14.60;;;;;;;23.43;77.23;100193.72;5038599;28;20772;-69
2021/06/20 04:54:00;;;;;;;16.53;14.83;;;;;;;23.58;76.87;100196.84;5036595;28;20206;-71
2021/06/20 04:56:27;;;;;;;15.43;13.60;;;;;;;23.70;75.00;100200.28;5025335;28;20202;-70
2021/06/20 04:58:55;;;;;;;14.68;13.18;;;;;;;23.83;74.21;100199.22;5039800;28;20365;-73
2021/06/20 05:01:21;;;;;;;14.98;13.48;;;;;;;23.93;72.57;100198.25;5041148;28;20673;-71
2021/06/20 05:03:49;;;;;;;14.23;12.93;;;;;;;24.06;72.11;100195.34;5043654;28;20496;-73
2021/06/20 05:06:15;;;;;;;13.93;12.57;;;;;;;24.22;71.37;100200.16;5041027;28;20207;-69
2021/06/20 05:08:42;;;;;;;13.23;12.02;;;;;;;24.37;70.88;100192.56;5037856;28;20215;-74
2021/06/20 05:11:08;;;;;;;14.75;12.10;;;;;;;24.51;69.42;100188.66;5038889;28;20820;-72
2021/06/20 05:13:34;;;;;;;12.68;11.35;;;;;;;24.63;68.76;100176.88;5040865;28;20218;-69
2021/06/20 05:16:03;;;;;;;12.20;11.10;;;;;;;24.79;66.58;100178.13;5037695;28;20202;-76
2021/06/20 05:18:29;;;;;;;12.15;11.02;;;;;;;24.93;67.20;100180.34;5039553;28;20247;-69
2021/06/20 05:20:56;;;;;;;12.57;11.32;;;;;;;25.01;68.72;100188.47;5038002;28;20864;-68
2021/06/20 05:23:22;;;;;;;12.35;11.15;;;;;;;25.09;68.08;100187.75;5043853;28;20668;-72
2021/06/20 05:25:49;;;;;;;14.43;11.48;;;;;;;25.23;67.87;100183.78;5034556;28;20207;-71
2021/06/20 05:28:15;;;;;;;12.98;11.77;;;;;;;25.33;65.38;100195.28;5032935;28;20224;-72
2021/06/20 05:30:57;;;;;;;12.43;11.13;;;;;;;25.45;64.95;100195.94;5039553;28;20281;-72
2021/06/20 05:33:38;;;;;;;12.60;11.43;;;;;;;25.59;64.33;100200.78;5043408;28;20205;-74
2021/06/20 05:36:11;;;;;;;13.18;11.93;;;;;;;25.67;64.79;100200.88;5034279;28;20599;-72
2021/06/20 05:38:46;;;;;;;14.13;12.15;;;;;;;25.74;65.44;100201.13;5039004;28;20223;-75
2021/06/20 05:41:14;;;;;;;13.18;11.75;;;;;;;25.83;65.72;100210.91;5043666;28;20202;-72
2021/06/20 05:43:48;;;;;;;14.25;12.82;;;;;;;25.92;65.68;100211.84;5042264;28;20211;-71
2021/06/20 05:46:25;;;;;;;13.73;12.43;;;;;;;26.04;65.47;100208.00;5045176;28;20710;-70
2021/06/20 05:48:57;;;;;;;12.35;11.10;;;;;;;26.14;63.97;100213.31;5042205;28;20250;-69
2021/06/20 05:51:31;;;;;;;12.77;11.65;;;;;;;26.26;63.37;100212.09;5043246;28;20211;-75
2021/06/20 05:54:00;;;;;;;12.73;11.40;;;;;;;26.38;63.28;100217.19;5047075;28;20244;-72
2021/06/20 05:56:38;;;;;;;11.55;10.35;;;;;;;26.51;62.06;100222.16;5043468;28;20198;-71
2021/06/20 05:59:08;;;;;;;11.38;10.13;;;;;;;26.57;63.21;100227.72;5042060;28;20238;-72
2021/06/20 06:01:57;;;;;;;11.02;9.90;;;;;;;26.63;62.18;100235.19;5040671;28;20196;-70
2021/06/20 06:04:44;;;;;;;10.93;9.93;;;;;;;26.65;61.91;100245.72;5042367;28;20208;-70
2021/06/20 06:07:15;;;;;;;10.82;9.82;;;;;;;26.76;60.57;100250.00;5044023;28;20211;-73
2021/06/20 06:10:15;;;;;;;11.45;10.18;;;;;;;26.88;60.78;100242.53;5026948;28;20255;-73
2021/06/20 06:12:51;;;;;;;10.32;9.35;;;;;;;27.03;61.04;100246.34;5037610;28;20577;-70
2021/06/20 06:15:53;;;;;;;10.57;9.18;;;;;;;27.18;58.99;100249.28;5041126;28;20276;-71
2021/06/20 06:18:30;;;;;;;8.55;7.78;;;;;;;27.33;58.37;100255.75;5040744;28;20227;-73
2021/06/20 06:21:12;;;;;;;7.70;7.00;;;;;;;27.45;58.37;100259.00;5042599;28;20202;-69
2021/06/20 06:24:01;;;;;;;7.65;6.93;;;;;;;27.58;56.39;100250.53;5040024;28;20203;-71
2021/06/20 06:26:34;;;;;;;7.10;6.50;;;;;;;27.74;55.60;100252.47;5033557;28;20203;-69
2021/06/20 06:29:07;;;;;;;7.38;6.78;;;;;;;27.85;56.08;100246.00;5042774;28;20700;-69
2021/06/20 06:31:54;;;;;;;9.15;6.97;;;;;;;27.98;54.89;100238.34;5044353;28;20695;-70
2021/06/20 06:35:10;;;;;;;7.25;6.65;;;;;;;28.15;55.91;100239.25;5037470;28;20680;-69
2021/06/20 06:37:55;;;;;;;7.78;6.82;;;;;;;28.32;53.97;100240.97;5018652;28;20226;-74
2021/06/20 06:40:29;;;;;;;7.22;6.55;;;;;;;28.47;53.47;100248.34;5039120;28;20208;-70
2021/06/20 06:43:09;;;;;;;7.45;6.55;;;;;;;28.62;53.95;100236.00;5025495;28;20207;-75
2021/06/20 06:45:50;;;;;;;8.02;7.15;;;;;;;28.78;53.04;100231.66;5042635;28;20209;-73
2021/06/20 06:48:44;;;;;;;;;;;;;;;;;;;;;
2021/06/20 06:54:50;;;;;;;6.90;6.25;;;;;;;29.20;52.53;100228.78;5031738;28;20195;-73
2021/06/20 06:57:31;;;;;;;5.90;5.30;;;;;;;29.39;51.16;100232.06;5037859;28;20225;-75
2021/06/20 07:00:12;;;;;;;5.70;5.15;;;;;;;29.54;49.98;100224.13;5042052;28;20199;-73
2021/06/20 07:03:15;;;;;;;5.97;5.47;;;;;;;29.61;48.40;100223.25;5033107;28;20714;-71
2021/06/20 07:05:46;;;;;;;5.88;5.38;;;;;;;29.65;47.86;100227.25;5038565;28;20200;-71
2021/06/20 07:08:20;;;;;;;5.93;5.30;;;;;;;29.73;47.30;100228.28;5041139;28;20582;-71
2021/06/20 07:11:01;;;;;;;6.03;5.38;;;;;;;29.81;46.97;100237.16;5041484;28;20342;-72
2021/06/20 07:13:48;;;;;;;5.88;5.38;;;;;;;29.76;46.92;100228.78;5039927;28;20580;-69
2021/06/20 07:16:20;;;;;;;6.05;5.55;;;;;;;29.75;46.35;100231.63;5038253;28;20195;-69
2021/06/20 07:18:53;;;;;;;5.68;5.15;;;;;;;29.93;47.07;100234.06;5041149;28;20761;-71
2021/06/20 07:21:29;;;;;;;5.40;5.00;;;;;;;29.97;46.15;100225.50;5036398;28;20191;-72
2021/06/20 07:24:10;;;;;;;5.80;5.30;;;;;;;29.97;46.18;100222.81;5035599;28;20212;-73
2021/06/20 07:26:55;;;;;;;6.03;5.13;;;;;;;30.00;46.80;100218.91;5038418;28;20195;-73
2021/06/20 07:29:27;;;;;;;6.35;5.78;;;;;;;30.05;45.53;100213.84;5038691;28;20764;-72
2021/06/20 07:31:54;;;;;;;7.57;5.53;;;;;;;30.17;46.26;100212.44;5034632;28;21651;-71
2021/06/20 07:34:20;;;;;;;6.10;5.25;;;;;;;30.30;47.33;100211.81;5041048;28;20227;-71
2021/06/20 07:36:48;;;;;;;6.20;5.60;;;;;;;30.28;47.33;100213.84;5016770;28;20264;-71
2021/06/20 07:39:16;;;;;;;5.55;4.85;;;;;;;30.23;45.40;100226.16;5038471;28;20226;-71
2021/06/20 07:41:44;;;;;;;6.55;5.63;;;;;;;30.23;45.34;100221.63;5039068;28;20623;-71
2021/06/20 07:44:10;;;;;;;6.00;5.40;;;;;;;30.40;45.40;100219.69;5042565;28;20198;-71
2021/06/20 07:46:36;;;;;;;6.10;5.60;;;;;;;30.56;46.47;100221.44;5041409;28;20309;-71
2021/06/20 07:49:03;;;;;;;5.47;4.97;;;;;;;30.74;45.51;100215.72;5039752;28;20234;-71
2021/06/20 07:51:29;;;;;;;5.80;5.20;;;;;;;30.89;45.49;100215.78;5041300;28;20224;-71
2021/06/20 07:53:56;;;;;;;7.20;5.43;;;;;;;31.01;44.15;100222.41;5041743;28;20200;-71
2021/06/20 07:56:22;;;;;;;6.00;5.40;;;;;;;31.15;44.54;100223.41;5035721;28;20209;-71
2021/06/20 07:58:50;;;;;;;5.70;5.20;;;;;;;31.18;44.77;100219.53;5018673;28;20256;-71
2021/06/20 08:01:16;;;;;;;5.60;5.20;;;;;;;31.34;44.57;100224.72;5038798;28;20207;-71
2021/06/20 08:03:42;;;;;;;6.40;5.63;;;;;;;31.49;44.62;100214.00;5041017;28;20213;-71
2021/06/20 08:06:09;;;;;;;6.68;6.10;;;;;;;31.54;45.18;100219.66;5040070;28;20299;-71
2021/06/20 08:08:35;;;;;;;5.35;4.95;;;;;;;31.68;43.57;100220.69;5043406;28;20960;-71
2021/06/20 08:11:03;;;;;;;6.38;5.30;;;;;;;31.90;43.74;100226.94;5024067;28;20432;-72
2021/06/20 08:13:29;;;;;;;6.47;5.30;;;;;;;32.14;42.84;100227.63;5041171;28;20210;-71
2021/06/20 08:15:57;;;;;;;5.97;5.45;;;;;;;32.13;43.30;100226.81;5039861;28;20306;-71
2021/06/20 08:18:24;;;;;;;5.20;4.80;;;;;;;32.00;42.44;100226.66;5038402;28;20815;-71
2021/06/20 08:20:50;;;;;;;5.35;4.95;;;;;;;31.86;42.53;100226.47;5034067;28;20290;-71
2021/06/20 08:23:16;;;;;;;5.50;5.00;;;;;;;31.88;42.12;100210.94;5022101;28;20202;-71
2021/06/20 08:25:43;;;;;;;5.50;5.00;;;;;;;31.88;40.96;100218.22;5018142;28;20748;-71
2021/06/20 08:28:09;;;;;;;5.32;4.90;;;;;;;31.89;42.43;100214.47;5039061;28;20224;-71
2021/06/20 08:30:35;;;;;;;5.65;4.68;;;;;;;32.07;42.54;100200.63;5042587;28;20721;-71
2021/06/20 08:33:03;;;;;;;5.43;4.93;;;;;;;32.32;42.96;100198.38;5038717;28;20223;-72
2021/06/20 08:35:30;;;;;;;5.30;4.80;;;;;;;32.45;40.99;100201.22;5042130;28;20209;-71
2021/06/20 08:37:56;;;;;;;5.20;4.72;;;;;;;32.51;41.86;100205.00;5040847;28;20246;-72
2021/06/20 08:40:23;;;;;;;4.70;4.30;;;;;;;32.58;41.01;100200.50;5036053;28;20210;-72
2021/06/20 08:42:49;;;;;;;4.93;4.53;;;;;;;32.77;40.61;100193.63;5035799;28;20768;-71
2021/06/20 08:45:16;;;;;;;5.20;4.75;;;;;;;32.78;39.83;100199.84;5037607;28;20203;-72
2021/06/20 08:47:42;;;;;;;5.03;4.53;;;;;;;32.88;40.33;100196.81;5036199;28;20365;-72
2021/06/20 08:50:12;;;;;;;4.85;4.45;;;;;;;33.00;40.87;100189.84;5036099;28;20215;-71
2021/06/20 08:52:39;;;;;;;5.00;4.50;;;;;;;33.10;40.54;100200.28;5036751;28;20224;-71
2021/06/20 08:55:08;;;;;;;5.07;4.68;;;;;;;33.24;39.22;100202.03;5034101;28;20218;-71
2021/06/20 08:57:37;;;;;;;4.57;4.18;;;;;;;33.36;37.91;100199.63;5019700;28;20749;-71
2021/06/20 09:00:05;;;;;;;5.57;4.00;;;;;;;33.52;37.67;100199.28;5035595;28;20211;-71
2021/06/20 09:02:59;;;;;;;5.28;3.80;;;;;;;33.63;36.87;100197.88;5035610;28;20199;-71
2021/06/20 09:05:45;;;;;;;4.95;4.07;;;;;;;33.70;36.46;100196.09;5016325;28;21632;-71
2021/06/20 09:08:19;;;;;;;5.25;3.88;;;;;;;33.65;36.25;100193.13;5031301;28;20968;-71
2021/06/20 09:11:03;;;;;;;3.65;3.40;;;;;;;33.74;37.34;100183.00;5037012;28;20254;-71
2021/06/20 09:13:44;;;;;;;5.15;4.07;;;;;;;33.64;36.25;100182.50;5038079;28;20223;-71
2021/06/20 09:16:19;;;;;;;4.22;3.83;;;;;;;33.64;34.97;100186.03;5039313;28;20266;-71
2021/06/20 09:18:57;;;;;;;4.32;3.92;;;;;;;33.75;35.43;100177.34;5039389;28;20220;-71
2021/06/20 09:21:27;;;;;;;4.53;4.13;;;;;;;33.85;36.24;100173.47;5030856;28;20336;-71
2021/06/20 09:23:59;;;;;;;4.63;3.85;;;;;;;33.85;35.61;100181.56;5037697;28;20325;-71
2021/06/20 09:26:46;;;;;;;4.13;3.75;;;;;;;34.02;34.70;100174.75;5039198;28;20734;-71
2021/06/20 09:29:39;;;;;;;3.92;3.63;;;;;;;34.16;36.10;100159.38;5035082;28;20220;-71
2021/06/20 09:32:20;;;;;;;6.10;3.85;;;;;;;34.13;35.16;100166.03;5039754;28;20212;-71
2021/06/20 09:34:57;;;;;;;3.95;3.30;;;;;;;34.29;34.42;100166.69;5038759;28;20204;-71
2021/06/20 09:37:38;;;;;;;4.28;3.88;;;;;;;34.25;34.51;100165.47;5041235;28;20227;-71
2021/06/20 09:40:47;;;;;;;4.28;3.88;;;;;;;34.32;35.33;100166.28;5040088;28;20303;-71
2021/06/20 09:43:16;;;;;;;4.20;3.90;;;;;;;34.36;35.50;100167.53;5033906;28;20388;-71
2021/06/20 09:45:45;;;;;;;4.10;3.67;;;;;;;34.26;35.91;100161.69;5038534;28;20215;-70
2021/06/20 09:48:25;;;;;;;6.65;4.20;;;;;;;34.20;34.58;100170.66;5039738;28;20227;-71
2021/06/20 09:50:52;;;;;;;4.43;3.80;;;;;;;34.06;34.24;100167.88;5022591;28;20284;-72
2021/06/20 09:53:32;;;;;;;4.68;4.10;;;;;;;33.90;35.27;100161.00;5043986;28;20635;-71
2021/06/20 09:56:10;;;;;;;5.05;4.00;;;;;;;34.05;36.62;100155.38;5039715;28;20570;-72
2021/06/20 09:58:42;;;;;;;4.32;3.97;;;;;;;34.07;35.87;100149.78;5051154;28;20306;-71
2021/06/20 10:01:13;;;;;;;4.50;4.20;;;;;;;34.22;35.06;100155.88;5048666;28;20191;-70
2021/06/20 10:03:46;;;;;;;4.95;4.50;;;;;;;34.10;35.46;100150.19;5054234;28;20295;-70
2021/06/20 10:06:14;;;;;;;4.82;4.43;;;;;;;34.02;35.93;100144.16;5047353;28;20242;-71
2021/06/20 10:08:43;;;;;;;4.90;4.50;;;;;;;34.11;36.75;100141.06;5041276;28;20576;-71
2021/06/20 10:11:11;;;;;;;5.40;4.10;;;;;;;34.19;35.25;100140.03;5046249;28;20307;-73
2021/06/20 10:13:38;;;;;;;4.82;4.43;;;;;;;34.21;35.80;100142.53;5045586;28;20222;-73
2021/06/20 10:16:17;;;;;;;5.03;4.30;;;;;;;34.27;36.56;100139.03;5046641;28;20235;-69
2021/06/20 10:18:49;;;;;;;4.55;4.15;;;;;;;34.20;36.05;100141.72;5047396;28;20222;-70
2021/06/20 10:21:27;;;;;;;6.38;4.43;;;;;;;34.24;36.13;100129.44;5047121;28;20211;-71
2021/06/20 10:24:04;;;;;;;4.53;4.13;;;;;;;34.37;36.21;100130.47;5038455;28;20199;-73
2021/06/20 10:26:33;;;;;;;5.63;4.63;;;;;;;34.43;35.84;100119.66;5042181;28;20292;-72
2021/06/20 10:29:02;;;;;;;7.85;4.45;;;;;;;34.68;35.16;100124.44;5043666;28;20317;-73
2021/06/20 10:31:35;;;;;;;5.20;4.70;;;;;;;34.62;34.89;100115.28;5048715;28;20198;-73
2021/06/20 10:34:16;;;;;;;5.85;4.10;;;;;;;34.67;34.46;100120.91;5041558;28;20582;-70
2021/06/20 10:36:45;;;;;;;4.68;4.28;;;;;;;34.79;35.25;100123.78;5043108;28;20290;-73
2021/06/20 10:39:14;;;;;;;4.80;4.40;;;;;;;34.84;35.57;100107.75;5037190;28;20271;-69
2021/06/20 10:41:40;;;;;;;7.03;4.60;;;;;;;34.93;35.49;100118.38;5046890;28;20207;-72
2021/06/20 10:44:07;;;;;;;5.63;4.53;;;;;;;35.04;34.26;100118.53;5046868;28;20608;-73
2021/06/20 10:46:35;;;;;;;5.05;4.55;;;;;;;35.09;35.60;100115.19;5046331;28;20327;-70
2021/06/20 10:49:14;;;;;;;5.47;4.88;;;;;;;35.20;36.12;100108.28;5045371;28;20227;-70
2021/06/20 10:51:40;;;;;;;5.68;4.57;;;;;;;35.12;36.61;100106.63;5052306;28;20257;-71
2021/06/20 10:54:07;;;;;;;5.93;4.68;;;;;;;34.88;37.10;100108.16;5052877;28;20206;-70
2021/06/20 10:56:35;;;;;;;5.57;4.70;;;;;;;34.62;38.74;100103.63;5047820;28;20206;-72
2021/06/20 10:59:02;;;;;;;5.70;5.20;;;;;;;34.12;38.98;100109.44;5029516;28;20241;-71
2021/06/20 11:01:30;;;;;;;5.43;4.93;;;;;;;34.14;38.77;100105.50;5046066;28;20195;-70
2021/06/20 11:04:01;;;;;;;6.65;5.05;;;;;;;34.10;37.14;100119.63;5031048;28;20281;-72
2021/06/20 11:06:28;;;;;;;6.07;5.20;;;;;;;33.87;38.79;100112.72;5043332;28;20214;-72
2021/06/20 11:08:57;;;;;;;5.90;5.32;;;;;;;33.64;39.81;100104.97;5041905;28;20223;-70
2021/06/20 11:11:25;;;;;;;8.52;4.65;;;;;;;33.57;39.76;100099.53;5044018;28;20311;-74
2021/06/20 11:14:05;;;;;;;8.05;5.82;;;;;;;33.57;40.01;100102.22;5041215;28;20223;-72
2021/06/20 11:16:34;;;;;;;8.68;5.20;;;;;;;33.65;38.16;100106.63;5043989;28;20207;-72
2021/06/20 11:19:06;;;;;;;5.53;5.00;;;;;;;33.88;40.21;100102.75;5040211;28;20251;-74
2021/06/20 11:21:34;;;;;;;8.25;4.82;;;;;;;33.76;40.65;100097.94;5041077;28;20254;-71
2021/06/20 11:24:00;;;;;;;7.82;5.53;;;;;;;33.75;40.20;100090.03;5039468;28;20760;-73
2021/06/20 11:26:27;;;;;;;6.97;5.60;;;;;;;33.79;40.02;100098.56;5039999;28;20294;-71
2021/06/20 11:28:58;;;;;;;6.28;5.43;;;;;;;33.42;39.97;100095.31;5042322;28;20684;-71
2021/06/20 11:31:26;;;;;;;11.57;5.72;;;;;;;33.54;42.16;100091.84;5042813;28;20199;-73
2021/06/20 11:33:54;;;;;;;8.85;5.57;;;;;;;33.72;42.43;100088.59;5023869;28;20943;-72
2021/06/20 11:36:20;;;;;;;8.93;5.25;;;;;;;33.95;42.46;100096.31;5040640;28;20249;-70
2021/06/20 11:38:47;;;;;;;11.45;5.90;;;;;;;33.79;40.98;100102.13;5041239;28;20227;-73
2021/06/20 11:41:18;;;;;;;9.32;5.38;;;;;;;33.86;42.33;100094.88;5042060;28;20747;-74
2021/06/20 11:43:59;;;;;;;13.77;6.35;;;;;;;33.70;41.41;100112.28;5040448;28;20269;-72
2021/06/20 11:46:30;;;;;;;11.00;5.25;;;;;;;33.71;40.07;100105.84;5040659;28;20211;-75
2021/06/20 11:48:59;;;;;;;11.98;5.40;;;;;;;33.80;40.09;100101.06;5029293;28;20610;-71
2021/06/20 11:51:37;;;;;;;12.18;5.43;;;;;;;34.08;41.50;100086.56;5037379;28;20688;-69
2021/06/20 11:54:13;;;;;;;12.90;5.70;;;;;;;34.21;41.08;100089.28;5038299;28;20309;-72
2021/06/20 11:56:41;;;;;;;13.85;6.35;;;;;;;34.31;41.22;100083.47;5037070;28;20203;-69
2021/06/20 11:59:08;;;;;;;8.65;5.53;;;;;;;34.26;40.37;100075.13;5041183;28;20218;-70
2021/06/20 12:01:48;;;;;;;11.00;5.63;;;;;;;34.44;41.08;100079.91;5054428;28;20252;-73
2021/06/20 12:04:19;;;;;;;16.42;6.05;;;;;;;34.61;40.65;100077.59;5049245;28;20195;-70
2021/06/20 12:06:46;;;;;;;13.95;5.68;;;;;;;34.65;39.17;100085.09;5042356;28;20255;-72
2021/06/20 12:09:13;;;;;;;8.98;5.35;;;;;;;34.64;40.93;100086.13;5025989;28;20230;-71